Time;durP1;ratioP1;P1;durP2;ratioP2;P2;SDS_P1;SDS_P2;PMS_P1;PMS_P2;Temp;Humidity;BMP_temperature;BMP_pressure;BME280_temperature;BME280_humidity;BME280_pressure;Samples;Min_cycle;Max_cycle;Signal;HPM_P1;HPM_P2
2023/08/09 00:00:08;;;;;;;3.00;2.30;;;18.60;99.90;;;18.93;86.86;100358.91;5019919;28;20698;-65
2023/08/09 00:02:35;;;;;;;2.70;2.50;;;18.50;99.90;;;18.93;87.59;100358.09;5026420;28;21077;-65
2023/08/09 00:05:04;;;;;;;2.90;2.30;;;18.50;99.90;;;18.94;86.64;100359.75;5021725;28;20647;-65
2023/08/09 00:07:31;;;;;;;1.97;1.87;;;18.50;99.90;;;18.95;85.73;100361.41;5027241;28;20676;-65
2023/08/09 00:09:58;;;;;;;2.40;1.60;;;18.50;99.90;;;18.97;85.80;100354.97;5028835;28;20664;-65
2023/08/09 00:12:25;;;;;;;2.77;2.03;;;18.50;99.90;;;19.02;85.32;100359.72;5026907;28;20751;-65
2023/08/09 00:14:52;;;;;;;1.30;1.27;;;18.60;99.90;;;19.03;84.24;100348.16;5012876;28;20671;-66
2023/08/09 00:17:19;;;;;;;1.30;1.23;;;18.60;99.90;;;19.08;83.71;100353.75;5032333;28;20658;-65
2023/08/09 00:19:46;;;;;;;1.47;1.37;;;18.70;99.90;;;19.09;83.83;100348.28;5025367;28;20634;-65
2023/08/09 00:22:13;;;;;;;1.60;1.50;;;18.70;99.90;;;19.12;83.56;100344.50;5025146;28;20644;-65
2023/08/09 00:24:41;;;;;;;1.50;1.40;;;18.70;99.90;;;19.09;83.67;100347.47;5014733;28;20645;-66
2023/08/09 00:27:07;;;;;;;1.47;1.40;;;18.70;99.90;;;19.07;83.92;100339.72;5021698;28;20649;-66
2023/08/09 00:29:35;;;;;;;1.40;1.40;;;18.60;99.90;;;19.04;83.96;100355.06;5026774;28;20640;-66
2023/08/09 00:32:02;;;;;;;1.50;1.43;;;18.60;99.90;;;19.01;83.96;100361.56;5031299;28;20664;-65
2023/08/09 00:34:28;;;;;;;1.67;1.57;;;18.60;99.90;;;19.00;84.43;100364.34;5017938;28;20646;-66
2023/08/09 00:36:55;;;;;;;1.70;1.60;;;18.60;99.90;;;19.03;84.76;100348.16;5032237;28;21001;-66
2023/08/09 00:39:22;;;;;;;1.40;1.30;;;18.60;99.90;;;19.06;84.88;100353.13;5032693;28;20639;-65
2023/08/09 00:41:49;;;;;;;1.67;1.60;;;18.60;99.90;;;19.07;84.75;100350.28;5034040;28;20613;-66
2023/08/09 00:44:16;;;;;;;1.47;1.37;;;18.70;99.90;;;19.05;84.61;100339.06;5033525;28;20647;-64
2023/08/09 00:46:43;;;;;;;2.20;1.83;;;18.60;99.90;;;19.02;84.43;100338.56;5019180;28;20640;-65
2023/08/09 00:49:11;;;;;;;1.37;1.37;;;18.60;99.90;;;18.99;84.30;100341.56;5026269;28;20737;-65
2023/08/09 00:51:38;;;;;;;1.80;1.70;;;18.60;99.90;;;18.97;84.62;100338.25;5025275;28;20633;-65
2023/08/09 00:54:05;;;;;;;5.80;1.60;;;18.60;99.90;;;18.98;84.49;100335.44;5036901;28;21065;-65
2023/08/09 00:56:32;;;;;;;1.60;1.50;;;18.60;99.90;;;18.94;84.43;100334.13;5040441;28;21054;-64
2023/08/09 00:59:01;;;;;;;1.50;1.40;;;18.50;99.90;;;18.93;84.49;100342.25;5018051;28;21237;-65
2023/08/09 01:01:28;;;;;;;3.13;1.50;;;18.50;99.90;;;18.89;84.37;100336.47;5022938;28;20637;-66
2023/08/09 01:03:55;;;;;;;1.40;1.30;;;18.50;99.90;;;18.92;84.62;100345.88;5026586;28;20643;-64
2023/08/09 01:06:42;;;;;;;1.70;1.60;;;18.50;99.90;;;18.92;84.39;100352.00;5029785;28;20632;-65
2023/08/09 01:09:46;;;;;;;1.57;1.47;;;18.50;99.90;;;18.94;84.33;100346.53;5022735;28;20688;-63
2023/08/09 01:12:26;;;;;;;1.30;1.20;;;18.50;99.90;;;18.97;83.65;100354.97;5025041;28;20675;-65
2023/08/09 01:14:59;;;;;;;0.97;0.97;;;18.60;99.90;;;18.94;83.71;100349.16;5023906;28;20652;-65
2023/08/09 01:17:28;;;;;;;1.17;1.13;;;18.50;99.90;;;18.93;83.76;100352.81;5018781;28;20652;-62
2023/08/09 01:19:57;;;;;;;3.07;1.20;;;18.50;99.90;;;18.93;83.82;100348.34;5035224;28;20664;-66
2023/08/09 01:22:30;;;;;;;1.10;1.10;;;18.50;99.90;;;18.91;83.80;100338.94;5027578;28;21055;-65
2023/08/09 01:25:06;;;;;;;1.03;1.03;;;18.50;99.90;;;18.88;83.35;100340.13;5023346;28;21071;-67
2023/08/09 01:27:35;;;;;;;1.40;1.30;;;18.50;99.90;;;18.82;82.72;100345.25;5022643;28;20686;-63
2023/08/09 01:30:09;;;;;;;1.03;1.03;;;18.40;99.90;;;18.80;82.58;100348.06;5026688;28;20620;-65
2023/08/09 01:32:38;;;;;;;1.30;1.30;;;18.40;99.90;;;18.81;81.91;100344.41;5027363;28;21305;-65
2023/08/09 01:35:06;;;;;;;1.40;1.30;;;18.40;99.90;;;18.84;82.06;100343.25;5024112;28;20628;-66
2023/08/09 01:37:59;;;;;;;1.60;1.50;;;18.40;99.90;;;18.86;81.15;100339.47;5029396;28;21176;-66
2023/08/09 01:40:26;;;;;;;0.90;0.90;;;18.40;99.90;;;18.87;79.89;100354.31;5028273;28;20668;-65
2023/08/09 01:42:54;;;;;;;1.00;1.00;;;18.40;99.90;;;18.89;79.85;100347.03;5041641;28;20715;-62
2023/08/09 01:45:22;;;;;;;0.73;0.73;;;18.50;99.90;;;18.91;79.52;100349.53;5020571;28;20732;-65
2023/08/09 01:47:49;;;;;;;1.60;1.50;;;18.50;99.90;;;18.92;78.88;100340.59;5022685;28;20658;-66
2023/08/09 01:50:19;;;;;;;1.00;1.00;;;18.50;99.90;;;18.94;78.80;100349.16;5028697;28;21209;-66
2023/08/09 01:52:46;;;;;;;1.00;1.00;;;18.50;99.90;;;18.95;78.97;100348.19;5031470;28;20652;-65
2023/08/09 01:55:17;;;;;;;1.10;1.10;;;18.50;99.90;;;18.95;78.99;100343.69;5009826;28;20669;-64
2023/08/09 01:57:46;;;;;;;1.00;1.00;;;18.50;99.90;;;18.99;78.29;100344.22;5026718;28;20675;-66
2023/08/09 02:00:22;;;;;;;1.37;1.30;;;18.60;99.90;;;19.01;76.69;100339.56;5020495;28;20645;-66
2023/08/09 02:02:51;;;;;;;0.97;0.97;;;18.60;99.90;;;19.03;75.87;100343.69;5030860;28;20633;-66
2023/08/09 02:05:19;;;;;;;1.00;1.00;;;18.60;99.90;;;19.10;76.41;100347.28;5018308;28;20686;-65
2023/08/09 02:07:47;;;;;;;1.10;1.10;;;18.60;99.90;;;19.15;75.08;100338.84;5025767;28;20685;-66
2023/08/09 02:10:14;;;;;;;0.73;0.73;;;18.70;99.90;;;19.21;74.50;100354.84;5015939;28;20744;-67
2023/08/09 02:12:47;;;;;;;1.00;1.00;;;18.80;99.90;;;19.26;74.20;100344.59;5030484;28;20675;-65
2023/08/09 02:15:19;;;;;;;1.03;1.03;;;18.80;99.90;;;19.30;74.24;100351.16;5030191;28;21003;-64
2023/08/09 02:17:46;;;;;;;3.23;1.00;;;18.80;99.90;;;19.32;73.91;100351.00;5018871;28;20653;-66
2023/08/09 02:20:13;;;;;;;1.80;1.13;;;18.90;99.90;;;19.35;73.55;100345.41;5029041;28;20621;-66
2023/08/09 02:22:41;;;;;;;0.80;0.80;;;18.90;99.90;;;19.36;73.44;100357.59;5025168;28;20671;-68
2023/08/09 02:25:10;;;;;;;1.00;1.00;;;18.90;99.90;;;19.41;73.21;100357.09;5013990;28;20727;-66
2023/08/09 02:27:37;;;;;;;1.07;0.97;;;19.00;99.90;;;19.44;72.65;100349.66;5017013;28;20738;-66
2023/08/09 02:30:06;;;;;;;1.30;1.20;;;19.00;99.90;;;19.46;72.18;100338.88;5023653;28;20739;-67
2023/08/09 02:32:34;;;;;;;0.90;0.90;;;19.00;99.90;;;19.50;71.85;100341.03;5029093;28;21239;-65
2023/08/09 02:35:02;;;;;;;0.77;0.77;;;19.10;99.90;;;19.52;72.16;100346.97;5014198;28;21010;-65
2023/08/09 02:37:29;;;;;;;0.90;0.90;;;19.10;99.90;;;19.54;71.73;100349.41;5027717;28;20645;-66
2023/08/09 02:39:57;;;;;;;0.73;0.73;;;19.10;99.90;;;19.55;71.41;100340.50;5022762;28;20649;-65
2023/08/09 02:42:23;;;;;;;0.97;0.90;;;19.10;99.90;;;19.56;71.04;100350.91;5030212;28;20724;-66
2023/08/09 02:44:51;;;;;;;0.70;0.70;;;19.10;99.90;;;19.56;70.97;100348.25;5027551;28;20621;-66
2023/08/09 02:47:18;;;;;;;0.80;0.80;;;19.10;99.90;;;19.58;71.07;100343.59;5027935;28;20676;-66
2023/08/09 02:49:45;;;;;;;0.83;0.83;;;19.10;99.90;;;19.60;70.89;100333.66;5030040;28;20687;-66
2023/08/09 02:52:12;;;;;;;1.00;1.00;;;19.10;99.90;;;19.62;70.38;100333.47;5026003;28;20632;-65
2023/08/09 02:54:39;;;;;;;0.97;0.97;;;19.20;99.90;;;19.62;70.52;100336.97;5020402;28;21218;-66
2023/08/09 02:57:11;;;;;;;1.13;1.03;;;19.20;99.90;;;19.63;70.34;100338.63;5014827;28;20675;-67
2023/08/09 02:59:38;;;;;;;1.63;0.93;;;19.20;99.90;;;19.64;71.04;100350.84;5017613;28;20640;-65
2023/08/09 03:02:05;;;;;;;0.83;0.80;;;19.20;99.90;;;19.64;70.80;100342.91;5025879;28;20617;-66
2023/08/09 03:04:33;;;;;;;1.00;1.00;;;19.20;99.90;;;19.66;70.63;100351.50;5023221;28;20647;-66
2023/08/09 03:07:00;;;;;;;1.17;1.07;;;19.20;99.90;;;19.66;70.55;100348.84;5016558;28;20751;-64
2023/08/09 03:09:27;;;;;;;1.03;1.03;;;19.20;99.90;;;19.68;70.51;100360.06;5027197;28;20656;-66
2023/08/09 03:11:54;;;;;;;1.37;1.00;;;19.20;99.90;;;19.70;70.32;100355.44;5016524;28;20640;-65
2023/08/09 03:14:21;;;;;;;1.23;0.97;;;19.30;99.90;;;19.71;70.19;100354.44;5025927;28;21265;-66
2023/08/09 03:16:48;;;;;;;0.80;0.80;;;19.30;99.90;;;19.70;70.23;100355.44;5028952;28;20678;-65
2023/08/09 03:19:15;;;;;;;0.90;0.90;;;19.30;99.90;;;19.72;70.14;100353.44;5021670;28;21317;-66
2023/08/09 03:21:42;;;;;;;0.97;0.97;;;19.30;99.90;;;19.73;69.83;100356.91;5023920;28;20636;-65
2023/08/09 03:24:09;;;;;;;0.93;0.93;;;19.30;99.90;;;19.73;70.21;100365.69;5029255;28;20628;-67
2023/08/09 03:26:36;;;;;;;0.80;0.80;;;19.30;99.90;;;19.72;69.92;100355.28;5034751;28;21572;-65
2023/08/09 03:29:03;;;;;;;1.27;1.17;;;19.30;99.90;;;19.71;69.71;100362.38;5029534;28;20644;-66
2023/08/09 03:31:30;;;;;;;1.93;1.07;;;19.30;99.90;;;19.70;69.92;100363.38;5026200;28;20675;-62
2023/08/09 03:34:00;;;;;;;1.33;1.00;;;19.30;99.90;;;19.71;70.03;100370.34;5021572;28;20677;-64
2023/08/09 03:36:27;;;;;;;0.90;0.90;;;19.30;99.90;;;19.70;69.90;100363.38;5013548;28;20644;-63
2023/08/09 03:38:54;;;;;;;2.20;1.00;;;19.30;99.90;;;19.70;69.76;100363.38;5028652;28;20645;-66
2023/08/09 03:41:21;;;;;;;0.80;0.80;;;19.30;99.90;;;19.67;70.15;100362.91;5022121;28;20640;-67
2023/08/09 03:43:48;;;;;;;1.00;1.00;;;19.20;99.90;;;19.67;69.97;100355.81;5028630;28;21037;-66
2023/08/09 03:46:15;;;;;;;1.07;1.00;;;19.20;99.90;;;19.68;70.05;100365.38;5018097;28;20647;-65
2023/08/09 03:48:42;;;;;;;0.70;0.70;;;19.20;99.90;;;19.69;69.96;100372.31;5029457;28;20655;-66
2023/08/09 03:51:09;;;;;;;0.87;0.87;;;19.30;99.90;;;19.69;69.86;100366.19;5024385;28;20640;-64
2023/08/09 03:53:36;;;;;;;0.77;0.77;;;19.30;99.90;;;19.67;69.89;100370.84;5022303;28;20663;-65
2023/08/09 03:56:03;;;;;;;0.90;0.90;;;19.20;99.90;;;19.69;70.00;100374.97;5018952;28;20632;-69
2023/08/09 03:58:30;;;;;;;0.87;0.80;;;19.30;99.90;;;19.68;70.03;100373.31;5028046;28;20699;-65
2023/08/09 04:00:57;;;;;;;0.97;0.97;;;19.20;99.90;;;19.66;70.27;100371.84;5028282;28;21215;-66
2023/08/09 04:03:24;;;;;;;1.30;1.20;;;19.20;99.90;;;19.66;70.15;100369.19;5024743;28;20732;-65
2023/08/09 04:05:51;;;;;;;1.10;1.00;;;19.20;99.90;;;19.63;70.27;100378.31;5023330;28;21284;-66
2023/08/09 04:08:21;;;;;;;0.70;0.70;;;19.20;99.90;;;19.63;70.39;100375.69;5017317;28;20672;-67
2023/08/09 04:10:48;;;;;;;1.00;0.97;;;19.20;99.90;;;19.65;70.47;100381.63;5020668;28;20641;-66
2023/08/09 04:13:15;;;;;;;1.20;1.20;;;19.20;99.90;;;19.66;70.80;100382.41;5028012;28;21092;-67
2023/08/09 04:15:42;;;;;;;1.37;1.07;;;19.20;99.90;;;19.64;70.82;100379.97;5024471;28;20648;-67
2023/08/09 04:18:09;;;;;;;5.13;1.00;;;19.20;99.90;;;19.63;71.12;100378.31;5018507;28;20645;-66
2023/08/09 04:20:36;;;;;;;0.80;0.80;;;19.20;99.90;;;19.64;70.99;100376.47;5015224;28;21016;-66
2023/08/09 04:23:03;;;;;;;0.70;0.70;;;19.20;99.90;;;19.63;71.15;100377.50;5025315;28;20727;-66
2023/08/09 04:25:30;;;;;;;0.93;0.93;;;19.20;99.90;;;19.66;70.79;100379.78;5025167;28;20632;-65
2023/08/09 04:27:57;;;;;;;0.83;0.83;;;19.20;99.90;;;19.66;70.82;100383.25;5023441;28;21033;-62
2023/08/09 04:30:24;;;;;;;1.00;1.00;;;19.30;99.90;;;19.68;70.62;100381.25;5025171;28;20637;-66
2023/08/09 04:32:55;;;;;;;0.90;0.90;;;19.30;99.90;;;19.70;70.64;100379.25;5022481;28;21103;-66
2023/08/09 04:35:23;;;;;;;1.77;1.13;;;19.30;99.90;;;19.66;70.45;100370.00;5026660;28;20633;-66
2023/08/09 04:37:50;;;;;;;1.40;0.90;;;19.20;99.90;;;19.59;70.42;100371.69;5026924;28;20648;-66
2023/08/09 04:40:16;;;;;;;1.03;1.00;;;19.20;99.90;;;19.60;70.71;100373.38;5026467;28;20678;-66
2023/08/09 04:42:45;;;;;;;0.90;0.90;;;19.20;99.90;;;19.58;70.60;100370.06;5029064;28;20679;-63
2023/08/09 04:45:12;;;;;;;0.77;0.77;;;19.20;99.90;;;19.59;70.71;100366.41;5023003;28;20636;-66
2023/08/09 04:47:40;;;;;;;0.87;0.87;;;19.10;99.90;;;19.62;70.69;100370.53;5040286;28;21292;-66
2023/08/09 04:50:07;;;;;;;1.40;1.03;;;19.20;99.90;;;19.62;70.68;100375.81;5028279;28;20623;-66
2023/08/09 04:52:36;;;;;;;0.73;0.73;;;19.20;99.90;;;19.65;70.62;100380.78;5038783;28;20629;-65
2023/08/09 04:55:04;;;;;;;0.77;0.77;;;19.20;99.90;;;19.64;70.75;100385.25;5019775;28;21308;-62
2023/08/09 04:57:31;;;;;;;1.53;0.90;;;19.20;99.90;;;19.67;70.40;100384.09;5024297;28;20660;-67
2023/08/09 05:00:02;;;;;;;0.97;0.97;;;19.20;99.90;;;19.68;70.71;100394.50;5022974;28;20636;-65
2023/08/09 05:02:35;;;;;;;3.63;1.20;;;19.20;99.90;;;19.69;70.96;100398.78;5022161;28;20640;-65
2023/08/09 05:05:08;;;;;;;0.90;0.90;;;19.20;99.90;;;19.72;71.25;100405.56;5029448;28;20636;-67
2023/08/09 05:07:36;;;;;;;0.70;0.70;;;19.30;99.90;;;19.71;71.55;100401.25;5031405;28;20730;-67
2023/08/09 05:10:05;;;;;;;1.20;1.03;;;19.20;99.90;;;19.72;71.24;100401.06;5025907;28;20633;-66
2023/08/09 05:12:31;;;;;;;1.03;1.03;;;19.30;99.90;;;19.74;70.97;100406.22;5027005;28;20707;-65
2023/08/09 05:14:58;;;;;;;1.03;1.03;;;19.30;99.90;;;19.75;71.08;100413.97;5031973;28;20780;-66
2023/08/09 05:17:25;;;;;;;1.60;1.10;;;19.30;99.90;;;19.77;71.04;100411.16;5026408;28;20777;-66
2023/08/09 05:19:52;;;;;;;1.00;1.00;;;19.30;99.90;;;19.78;71.08;100405.66;5032143;28;20620;-65
2023/08/09 05:22:19;;;;;;;3.63;1.27;;;19.30;99.90;;;19.80;70.65;100413.47;5027299;28;20637;-63
2023/08/09 05:24:46;;;;;;;1.50;1.40;;;19.30;99.90;;;19.83;70.64;100423.69;5032205;28;20640;-65
2023/08/09 05:27:13;;;;;;;1.00;1.00;;;19.40;99.90;;;19.87;71.14;100424.97;5020531;28;20642;-63
2023/08/09 05:29:40;;;;;;;0.93;0.93;;;19.40;99.90;;;19.90;70.85;100417.53;5013665;28;20645;-65
2023/08/09 05:32:07;;;;;;;0.80;0.80;;;19.50;99.90;;;19.93;70.90;100424.31;5014561;28;20681;-67
2023/08/09 05:34:34;;;;;;;0.90;0.90;;;19.50;99.90;;;19.96;70.66;100432.72;5014220;28;20776;-65
2023/08/09 05:37:01;;;;;;;1.00;1.00;;;19.50;99.90;;;19.99;70.53;100431.53;5009829;28;20695;-65
2023/08/09 05:39:28;;;;;;;0.80;0.77;;;19.60;99.90;;;20.00;70.67;100428.72;5015822;28;21092;-66
2023/08/09 05:41:55;;;;;;;1.00;1.00;;;19.60;99.90;;;20.02;70.36;100432.00;5016488;28;20653;-65
2023/08/09 05:44:22;;;;;;;1.10;1.10;;;19.60;99.90;;;20.03;70.61;100432.84;5011942;28;20745;-68
2023/08/09 05:46:49;;;;;;;3.80;1.20;;;19.60;99.90;;;20.03;70.29;100427.53;5014546;28;20633;-64
2023/08/09 05:49:16;;;;;;;1.53;1.43;;;19.60;99.90;;;20.02;70.51;100434.66;5013230;28;20719;-64
2023/08/09 05:51:43;;;;;;;1.57;1.47;;;19.60;99.90;;;20.02;70.40;100442.59;5030721;28;21181;-66
2023/08/09 05:54:10;;;;;;;1.60;1.50;;;19.60;99.90;;;20.00;70.14;100444.59;5030270;28;20700;-66
2023/08/09 05:56:38;;;;;;;1.50;1.50;;;19.60;99.90;;;20.00;70.69;100441.94;5019868;28;20640;-65
2023/08/09 05:59:05;;;;;;;2.30;1.17;;;19.60;99.90;;;20.02;70.55;100434.66;5027921;28;20675;-65
2023/08/09 06:01:32;;;;;;;3.23;1.20;;;19.60;99.90;;;20.03;70.67;100438.97;5023767;28;20633;-66
2023/08/09 06:03:59;;;;;;;0.73;0.73;;;19.60;99.90;;;20.02;70.83;100447.06;5028862;28;20651;-65
2023/08/09 06:06:26;;;;;;;2.57;0.73;;;19.60;99.90;;;20.01;70.58;100440.97;5030969;28;20624;-66
2023/08/09 06:08:53;;;;;;;1.00;1.00;;;19.60;99.90;;;20.02;70.80;100447.06;5028186;28;20664;-65
2023/08/09 06:11:20;;;;;;;0.93;0.93;;;19.60;99.90;;;20.02;71.17;100437.31;5024615;28;20736;-65
2023/08/09 06:13:47;;;;;;;0.70;0.70;;;19.60;99.90;;;20.03;70.95;100443.44;5030144;28;20656;-66
2023/08/09 06:16:14;;;;;;;1.13;1.13;;;19.60;99.90;;;20.02;70.73;100453.19;5013748;28;20637;-66
2023/08/09 06:18:41;;;;;;;1.00;1.00;;;19.60;99.90;;;20.05;71.17;100454.66;5013807;28;20676;-64
2023/08/09 06:21:08;;;;;;;0.60;0.60;;;19.60;99.90;;;20.04;71.21;100450.34;5016392;28;20636;-67
2023/08/09 06:23:35;;;;;;;1.00;1.00;;;19.60;99.90;;;20.04;70.93;100453.00;5013752;28;20730;-66
2023/08/09 06:26:03;;;;;;;1.53;0.87;;;19.60;99.90;;;20.03;71.37;100461.97;5011341;28;20641;-66
2023/08/09 06:28:30;;;;;;;0.90;0.90;;;19.60;99.90;;;20.00;71.71;100460.50;5028524;28;21526;-65
2023/08/09 06:30:57;;;;;;;1.40;1.30;;;19.60;99.90;;;19.99;71.70;100452.72;5021387;28;20731;-66
2023/08/09 06:33:24;;;;;;;0.87;0.87;;;19.60;99.90;;;19.99;72.22;100458.03;5023513;28;20685;-65
2023/08/09 06:35:51;;;;;;;6.53;1.50;;;19.60;99.90;;;20.00;72.09;100455.19;5023251;28;21233;-66
2023/08/09 06:38:18;;;;;;;1.17;1.07;;;19.60;99.90;;;20.01;71.79;100456.84;5025342;28;20746;-64
2023/08/09 06:40:45;;;;;;;0.93;0.90;;;19.60;99.90;;;20.01;71.72;100462.16;5013795;28;20644;-65
2023/08/09 06:43:12;;;;;;;2.73;1.13;;;19.60;99.90;;;20.06;71.69;100470.38;5014851;28;20732;-66
2023/08/09 06:45:39;;;;;;;0.83;0.83;;;19.60;99.90;;;20.08;71.59;100472.88;5012229;28;20645;-65
2023/08/09 06:48:07;;;;;;;1.23;0.93;;;19.60;99.90;;;20.08;71.79;100470.22;5015346;28;20734;-66
2023/08/09 06:50:36;;;;;;;1.03;0.90;;;19.60;99.90;;;20.09;71.48;100467.41;5022056;28;20636;-66
2023/08/09 06:53:03;;;;;;;0.90;0.90;;;19.70;99.90;;;20.13;71.41;100466.03;5024905;28;20688;-66
2023/08/09 06:55:30;;;;;;;0.83;0.83;;;19.70;99.90;;;20.20;71.12;100462.69;5019994;28;20656;-66
2023/08/09 06:57:57;;;;;;;0.87;0.87;;;19.80;99.90;;;20.24;71.04;100466.66;5021725;28;20723;-66
2023/08/09 07:00:24;;;;;;;0.83;0.83;;;19.80;99.90;;;20.32;71.34;100463.94;5014792;28;20629;-66
2023/08/09 07:02:51;;;;;;;1.00;1.00;;;19.90;99.90;;;20.41;70.71;100468.19;5013512;28;21076;-64
2023/08/09 07:05:19;;;;;;;1.00;0.90;;;19.90;99.90;;;20.49;70.12;100468.13;5021063;28;20629;-65
2023/08/09 07:07:48;;;;;;;0.90;0.90;;;20.00;99.90;;;20.56;70.28;100474.38;5021933;28;20710;-66
2023/08/09 07:10:15;;;;;;;1.10;1.00;;;20.10;99.90;;;20.65;69.78;100471.47;5030063;28;21243;-66
2023/08/09 07:12:42;;;;;;;0.90;0.90;;;20.20;99.90;;;20.81;69.63;100481.09;5029337;28;20648;-66
2023/08/09 07:15:11;;;;;;;1.00;1.00;;;20.30;99.90;;;20.98;69.31;100490.56;5019835;28;21107;-66
2023/08/09 07:17:39;;;;;;;1.10;0.90;;;20.50;99.90;;;21.15;68.71;100494.72;5036105;28;20660;-65
2023/08/09 07:20:07;;;;;;;1.17;0.80;;;20.60;99.90;;;21.32;67.76;100495.38;5016919;28;20629;-66
2023/08/09 07:22:34;;;;;;;0.97;0.97;;;20.80;99.90;;;21.46;67.19;100497.22;5027996;28;20625;-66
2023/08/09 07:25:02;;;;;;;0.80;0.80;;;21.00;99.90;;;21.49;67.09;100500.31;5020714;28;20764;-66
2023/08/09 07:27:29;;;;;;;1.37;1.00;;;21.00;99.90;;;21.45;67.25;100501.69;5026427;28;20655;-68
2023/08/09 07:29:56;;;;;;;1.00;1.00;;;21.00;99.90;;;21.40;67.71;100504.06;5021570;28;20648;-65
2023/08/09 07:32:23;;;;;;;1.10;1.00;;;21.00;99.90;;;21.36;67.97;100507.31;5019709;28;20640;-65
2023/08/09 07:34:50;;;;;;;1.20;1.10;;;20.90;99.90;;;21.31;68.20;100513.16;5024976;28;20733;-66
2023/08/09 07:37:17;;;;;;;1.40;1.40;;;20.90;99.90;;;21.27;68.42;100514.53;5015999;28;20736;-65
2023/08/09 07:39:43;;;;;;;0.80;0.80;;;20.80;99.90;;;21.21;68.39;100517.88;5023919;28;20637;-66
2023/08/09 07:42:10;;;;;;;3.93;1.03;;;20.80;99.90;;;21.17;68.70;100524.56;5023801;28;20720;-66
2023/08/09 07:44:37;;;;;;;1.57;0.80;;;20.70;99.90;;;21.12;69.01;100526.94;5007723;28;20633;-65
2023/08/09 07:47:04;;;;;;;1.10;0.80;;;20.70;99.90;;;21.05;69.39;100515.41;5021835;28;20628;-65
2023/08/09 07:49:31;;;;;;;0.90;0.90;;;20.60;99.90;;;21.02;69.42;100520.22;5026232;28;20690;-68
2023/08/09 07:51:58;;;;;;;0.93;0.93;;;20.60;99.90;;;20.96;69.62;100508.47;5022577;28;20664;-65
2023/08/09 07:54:25;;;;;;;1.30;1.10;;;20.50;99.90;;;20.95;69.88;100513.97;5029159;28;20661;-66
2023/08/09 07:56:52;;;;;;;0.80;0.80;;;20.50;99.90;;;20.92;70.06;100514.31;5024284;28;20731;-65
2023/08/09 07:59:19;;;;;;;0.93;0.93;;;20.50;99.90;;;20.93;70.23;100519.47;5028224;28;20648;-67
2023/08/09 08:01:46;;;;;;;0.67;0.67;;;20.50;99.90;;;20.99;69.58;100526.69;5018897;28;20638;-68
2023/08/09 08:04:14;;;;;;;0.83;0.83;;;20.50;99.90;;;21.04;69.35;100528.84;5015199;28;20637;-67
2023/08/09 08:06:41;;;;;;;0.97;0.97;;;20.60;99.90;;;21.10;69.37;100536.91;5025285;28;20985;-67
2023/08/09 08:09:12;;;;;;;1.27;0.70;;;20.60;99.90;;;21.16;69.31;100538.84;5022004;28;20653;-65
2023/08/09 08:11:40;;;;;;;1.37;0.77;;;20.70;99.90;;;21.24;69.12;100540.56;5018614;28;20632;-69
2023/08/09 08:14:09;;;;;;;0.70;0.70;;;20.80;99.90;;;21.32;68.94;100537.84;5016721;28;21161;-68
2023/08/09 08:16:37;;;;;;;0.77;0.77;;;20.90;99.90;;;21.41;68.51;100553.50;5016204;28;20662;-66
2023/08/09 08:19:04;;;;;;;1.13;1.03;;;20.90;99.90;;;21.47;68.11;100552.78;5020819;28;20997;-68
2023/08/09 08:21:31;;;;;;;0.73;0.70;;;21.00;99.90;;;21.54;68.01;100545.75;5016665;28;21210;-68
2023/08/09 08:23:58;;;;;;;1.27;1.10;;;21.10;99.90;;;21.61;67.68;100549.28;5016476;28;21288;-67
2023/08/09 08:26:25;;;;;;;1.30;1.20;;;21.10;99.90;;;21.71;67.44;100548.19;5019848;28;20659;-66
2023/08/09 08:28:52;;;;;;;11.87;5.93;;;21.20;99.90;;;21.82;67.10;100555.72;5018009;28;20691;-66
2023/08/09 08:31:19;;;;;;;8.13;3.90;;;21.30;99.90;;;21.90;66.46;100552.97;5017396;28;20712;-69
2023/08/09 08:33:49;;;;;;;0.90;0.90;;;21.40;99.90;;;21.98;66.07;100558.19;5022961;28;21058;-70
2023/08/09 08:36:16;;;;;;;0.67;0.67;;;21.50;99.90;;;22.04;66.19;100560.91;5024144;28;20632;-70
2023/08/09 08:38:46;;;;;;;0.90;0.90;;;21.60;99.90;;;22.10;65.70;100562.88;5014767;28;20690;-70
2023/08/09 08:41:13;;;;;;;1.00;0.90;;;21.60;99.90;;;22.25;65.73;100562.81;5021561;28;20691;-69
2023/08/09 08:43:41;;;;;;;0.97;0.90;;;21.70;99.90;;;22.50;64.70;100553.50;5029559;28;21619;-71
2023/08/09 08:46:14;;;;;;;0.90;0.90;;;22.00;99.90;;;22.73;64.20;100564.78;5031424;28;20636;-70
2023/08/09 08:48:47;;;;;;;0.60;0.60;;;22.20;99.90;;;22.84;63.71;100558.97;5026392;28;20714;-69
2023/08/09 08:51:14;;;;;;;0.90;0.90;;;22.40;99.90;;;22.87;63.10;100558.56;5038059;28;20644;-69
2023/08/09 08:53:41;;;;;;;0.77;0.77;;;22.40;99.90;;;22.92;63.32;100564.16;5024104;28;20632;-69
2023/08/09 08:56:09;;;;;;;0.87;0.87;;;22.50;99.90;;;22.96;63.17;100568.06;5028238;28;21340;-69
2023/08/09 08:58:36;;;;;;;0.80;0.77;;;22.50;99.90;;;23.02;63.10;100569.16;5020763;28;20747;-68
2023/08/09 09:01:03;;;;;;;1.13;0.67;;;22.50;99.90;;;23.00;62.64;100574.66;5047003;28;20678;-69
2023/08/09 09:03:30;;;;;;;0.90;0.90;;;22.50;99.90;;;23.00;62.36;100571.16;5023049;28;21200;-69
2023/08/09 09:05:57;;;;;;;0.80;0.80;;;22.50;99.90;;;22.94;62.39;100567.44;5031512;28;21186;-69
2023/08/09 09:08:26;;;;;;;0.90;0.90;;;22.50;99.90;;;22.89;63.08;100571.69;5025198;28;20672;-68
2023/08/09 09:10:54;;;;;;;1.20;1.20;;;22.40;99.90;;;22.81;62.82;100569.16;5042808;28;20631;-68
2023/08/09 09:13:26;;;;;;;0.80;0.70;;;22.40;99.90;;;22.77;63.55;100579.34;5030809;28;20909;-65
2023/08/09 09:15:55;;;;;;;1.87;1.13;;;22.30;99.90;;;22.68;63.23;100577.81;5024444;28;20657;-66
2023/08/09 09:18:22;;;;;;;0.60;0.60;;;22.30;99.90;;;22.58;63.13;100584.44;5029386;28;20671;-65
2023/08/09 09:20:51;;;;;;;1.13;0.80;;;22.10;99.90;;;22.50;64.11;100576.59;5016989;28;20644;-65
2023/08/09 09:23:29;;;;;;;1.33;0.70;;;22.10;99.90;;;22.47;64.12;100583.09;5030163;28;20628;-66
2023/08/09 09:26:06;;;;;;;0.77;0.77;;;22.00;99.90;;;22.41;64.20;100583.84;5020523;28;21373;-65
2023/08/09 09:28:47;;;;;;;0.80;0.80;;;22.00;99.90;;;22.40;64.66;100585.69;5021473;28;20653;-66
2023/08/09 09:31:19;;;;;;;0.80;0.80;;;22.00;99.90;;;22.35;64.74;100588.09;5021820;28;20648;-65
2023/08/09 09:33:51;;;;;;;0.80;0.80;;;21.90;99.90;;;22.35;65.04;100589.91;5034213;28;20636;-65
2023/08/09 09:36:18;;;;;;;0.67;0.60;;;21.80;99.90;;;22.33;65.11;100582.16;5022864;28;20671;-68
2023/08/09 09:38:53;;;;;;;0.70;0.70;;;21.90;99.90;;;22.30;65.40;100582.50;5029898;28;20654;-65
2023/08/09 09:41:21;;;;;;;1.00;0.93;;;21.80;99.90;;;22.27;65.41;100580.25;5020221;28;20777;-65
2023/08/09 09:43:50;;;;;;;0.77;0.77;;;21.80;99.90;;;22.22;65.77;100587.09;5026054;28;20634;-65
2023/08/09 09:46:23;;;;;;;0.70;0.70;;;21.80;99.90;;;22.14;66.54;100597.84;5025830;28;20660;-65
2023/08/09 09:49:05;;;;;;;0.87;0.83;;;21.70;99.90;;;22.08;67.55;100599.38;5024765;28;21058;-64
2023/08/09 09:51:33;;;;;;;0.80;0.80;;;21.60;99.90;;;22.05;68.69;100601.59;5027345;28;20644;-65
2023/08/09 09:54:00;;;;;;;0.80;0.80;;;21.60;99.90;;;22.09;69.67;100605.53;5026286;28;21292;-65
2023/08/09 09:56:27;;;;;;;0.90;0.90;;;21.60;99.90;;;22.15;69.76;100604.78;5028678;28;20664;-64
2023/08/09 09:58:54;;;;;;;4.70;0.90;;;21.70;99.90;;;22.25;69.71;100597.38;5021859;28;20671;-65
2023/08/09 10:01:24;;;;;;;3.23;0.90;;;21.80;99.90;;;22.43;69.03;100597.78;5024555;28;20664;-65
2023/08/09 10:04:08;;;;;;;0.87;0.87;;;21.90;99.90;;;22.63;69.06;100590.88;5030718;28;20633;-65
2023/08/09 10:06:42;;;;;;;0.83;0.83;;;22.10;99.90;;;22.78;68.71;100589.00;5034904;28;20629;-66
2023/08/09 10:09:12;;;;;;;0.90;0.90;;;22.30;99.90;;;22.91;68.00;100589.09;5024759;28;21071;-65
2023/08/09 10:11:43;;;;;;;0.70;0.70;;;22.40;99.90;;;23.10;67.93;100588.47;5031114;28;20639;-66
2023/08/09 10:14:12;;;;;;;0.97;0.90;;;22.60;99.90;;;23.33;67.02;100590.09;5031484;28;20649;-66
2023/08/09 10:16:39;;;;;;;0.90;0.90;;;22.80;99.90;;;23.51;66.31;100585.91;5027074;28;20760;-66